sensor_id;sensor_type;location;lat;lon;timestamp;pressure;altitude;pressure_sealevel;temperature;humidity
83116;BME280;72996;40.206;44.498;2024-01-07T00:01:58;89904.75;;;5.80;37.48
83116;BME280;72996;40.206;44.498;2024-01-07T00:04:24;89916.38;;;5.84;36.67
83116;BME280;72996;40.206;44.498;2024-01-07T00:06:49;89908.56;;;5.79;36.74
83116;BME280;72996;40.206;44.498;2024-01-07T00:09:18;89900.47;;;5.77;36.97
83116;BME280;72996;40.206;44.498;2024-01-07T00:11:44;89903.06;;;5.82;36.70
83116;BME280;72996;40.206;44.498;2024-01-07T00:14:09;89896.25;;;5.68;36.88
83116;BME280;72996;40.206;44.498;2024-01-07T00:16:35;89901.47;;;5.74;36.82
83116;BME280;72996;40.206;44.498;2024-01-07T00:19:01;89906.19;;;5.81;37.54
83116;BME280;72996;40.206;44.498;2024-01-07T00:21:27;89908.03;;;5.86;37.21
83116;BME280;72996;40.206;44.498;2024-01-07T00:23:53;89898.75;;;5.85;36.44
83116;BME280;72996;40.206;44.498;2024-01-07T00:26:18;89899.25;;;5.78;36.76
83116;BME280;72996;40.206;44.498;2024-01-07T00:28:44;89906.97;;;5.70;37.42
83116;BME280;72996;40.206;44.498;2024-01-07T00:31:12;89898.16;;;5.68;37.25
83116;BME280;72996;40.206;44.498;2024-01-07T00:33:37;89894.31;;;5.50;37.44
83116;BME280;72996;40.206;44.498;2024-01-07T00:36:03;89893.91;;;5.41;37.60
83116;BME280;72996;40.206;44.498;2024-01-07T00:38:29;89889.25;;;5.28;37.25
83116;BME280;72996;40.206;44.498;2024-01-07T00:40:55;89885.44;;;5.29;37.67
83116;BME280;72996;40.206;44.498;2024-01-07T00:43:20;89887.13;;;5.27;38.08
83116;BME280;72996;40.206;44.498;2024-01-07T00:45:46;89871.50;;;5.16;38.39
83116;BME280;72996;40.206;44.498;2024-01-07T00:48:12;89873.19;;;5.13;37.31
83116;BME280;72996;40.206;44.498;2024-01-07T00:50:37;89880.44;;;5.31;38.33
83116;BME280;72996;40.206;44.498;2024-01-07T00:53:03;89879.06;;;5.25;37.66
83116;BME280;72996;40.206;44.498;2024-01-07T00:55:29;89885.25;;;5.22;37.70
83116;BME280;72996;40.206;44.498;2024-01-07T00:57:54;89871.75;;;5.18;38.05
83116;BME280;72996;40.206;44.498;2024-01-07T01:00:20;89871.03;;;5.17;38.08
83116;BME280;72996;40.206;44.498;2024-01-07T01:02:46;89876.75;;;5.16;38.27
83116;BME280;72996;40.206;44.498;2024-01-07T01:05:12;89861.28;;;5.12;37.88
83116;BME280;72996;40.206;44.498;2024-01-07T01:07:37;89846.56;;;5.09;37.54
83116;BME280;72996;40.206;44.498;2024-01-07T01:10:03;89862.41;;;5.22;37.84
83116;BME280;72996;40.206;44.498;2024-01-07T01:12:29;89869.00;;;5.29;37.55
83116;BME280;72996;40.206;44.498;2024-01-07T01:14:55;89863.28;;;5.30;37.69
83116;BME280;72996;40.206;44.498;2024-01-07T01:17:20;89857.81;;;5.28;37.47
83116;BME280;72996;40.206;44.498;2024-01-07T01:19:46;89857.19;;;5.17;37.59
83116;BME280;72996;40.206;44.498;2024-01-07T01:22:12;89864.28;;;5.22;37.84
83116;BME280;72996;40.206;44.498;2024-01-07T01:24:38;89851.44;;;5.24;37.63
83116;BME280;72996;40.206;44.498;2024-01-07T01:27:03;89859.50;;;5.26;36.87
83116;BME280;72996;40.206;44.498;2024-01-07T01:29:29;89865.50;;;5.21;37.73
83116;BME280;72996;40.206;44.498;2024-01-07T01:31:55;89854.25;;;5.26;38.01
83116;BME280;72996;40.206;44.498;2024-01-07T01:34:20;89857.13;;;5.28;37.76
83116;BME280;72996;40.206;44.498;2024-01-07T01:36:46;89870.97;;;5.23;36.83
83116;BME280;72996;40.206;44.498;2024-01-07T01:39:11;89863.44;;;5.14;37.46
83116;BME280;72996;40.206;44.498;2024-01-07T01:41:37;89859.25;;;5.00;37.25
83116;BME280;72996;40.206;44.498;2024-01-07T01:44:03;89846.22;;;4.94;37.38
83116;BME280;72996;40.206;44.498;2024-01-07T01:46:29;89857.41;;;4.95;37.45
83116;BME280;72996;40.206;44.498;2024-01-07T01:48:55;89853.56;;;4.96;37.96
83116;BME280;72996;40.206;44.498;2024-01-07T01:51:22;89823.75;;;4.75;38.19
83116;BME280;72996;40.206;44.498;2024-01-07T01:53:48;89842.69;;;4.92;37.63
83116;BME280;72996;40.206;44.498;2024-01-07T01:56:17;89841.22;;;4.91;37.47
83116;BME280;72996;40.206;44.498;2024-01-07T01:58:42;89846.91;;;4.95;37.35
83116;BME280;72996;40.206;44.498;2024-01-07T02:01:08;89843.66;;;4.89;37.15
83116;BME280;72996;40.206;44.498;2024-01-07T02:03:34;89846.47;;;4.91;37.92
83116;BME280;72996;40.206;44.498;2024-01-07T02:06:00;89847.91;;;4.92;37.50
83116;BME280;72996;40.206;44.498;2024-01-07T02:08:26;89860.78;;;4.90;37.69
83116;BME280;72996;40.206;44.498;2024-01-07T02:10:51;89859.34;;;4.89;37.79
83116;BME280;72996;40.206;44.498;2024-01-07T02:13:17;89858.91;;;4.85;37.08
83116;BME280;72996;40.206;44.498;2024-01-07T02:15:43;89859.91;;;4.82;37.26
83116;BME280;72996;40.206;44.498;2024-01-07T02:18:09;89860.31;;;4.86;37.96
83116;BME280;72996;40.206;44.498;2024-01-07T02:20:35;89861.25;;;4.88;37.27
83116;BME280;72996;40.206;44.498;2024-01-07T02:23:02;89856.94;;;4.91;38.02
83116;BME280;72996;40.206;44.498;2024-01-07T02:25:27;89852.25;;;4.84;37.85
83116;BME280;72996;40.206;44.498;2024-01-07T02:27:53;89865.38;;;4.78;38.07
83116;BME280;72996;40.206;44.498;2024-01-07T02:30:19;89857.66;;;4.62;37.52
83116;BME280;72996;40.206;44.498;2024-01-07T02:32:44;89857.31;;;4.76;37.71
83116;BME280;72996;40.206;44.498;2024-01-07T02:35:10;89858.03;;;4.77;37.20
83116;BME280;72996;40.206;44.498;2024-01-07T02:37:35;89859.38;;;4.83;37.34
83116;BME280;72996;40.206;44.498;2024-01-07T02:40:01;89860.56;;;4.88;38.02
83116;BME280;72996;40.206;44.498;2024-01-07T02:42:27;89850.19;;;4.77;37.21
83116;BME280;72996;40.206;44.498;2024-01-07T02:44:52;89862.09;;;4.72;37.13
83116;BME280;72996;40.206;44.498;2024-01-07T02:47:18;89865.53;;;4.62;38.45
83116;BME280;72996;40.206;44.498;2024-01-07T02:49:44;89859.97;;;4.71;37.22
83116;BME280;72996;40.206;44.498;2024-01-07T02:52:09;89860.84;;;4.84;37.34
83116;BME280;72996;40.206;44.498;2024-01-07T02:54:35;89859.81;;;4.93;37.90
83116;BME280;72996;40.206;44.498;2024-01-07T02:57:01;89862.81;;;5.02;37.69
83116;BME280;72996;40.206;44.498;2024-01-07T02:59:27;89862.94;;;4.86;37.37
83116;BME280;72996;40.206;44.498;2024-01-07T03:01:52;89870.88;;;4.75;38.23
83116;BME280;72996;40.206;44.498;2024-01-07T03:04:18;89857.59;;;4.73;37.46
83116;BME280;72996;40.206;44.498;2024-01-07T03:06:44;89870.88;;;4.75;37.76
83116;BME280;72996;40.206;44.498;2024-01-07T03:09:09;89871.78;;;4.83;37.88
83116;BME280;72996;40.206;44.498;2024-01-07T03:11:41;89871.25;;;4.90;38.04
83116;BME280;72996;40.206;44.498;2024-01-07T03:14:07;89874.84;;;4.87;37.34
83116;BME280;72996;40.206;44.498;2024-01-07T03:16:33;89878.97;;;4.77;38.32
83116;BME280;72996;40.206;44.498;2024-01-07T03:18:58;89882.84;;;4.65;37.51
83116;BME280;72996;40.206;44.498;2024-01-07T03:21:24;89879.13;;;4.55;38.56
83116;BME280;72996;40.206;44.498;2024-01-07T03:23:51;89892.19;;;4.60;37.79
83116;BME280;72996;40.206;44.498;2024-01-07T03:26:17;89871.25;;;4.60;38.24
83116;BME280;72996;40.206;44.498;2024-01-07T03:28:44;89876.66;;;4.68;38.13
83116;BME280;72996;40.206;44.498;2024-01-07T03:31:11;89876.66;;;4.68;38.41
83116;BME280;72996;40.206;44.498;2024-01-07T03:33:38;89871.03;;;4.58;38.34
83116;BME280;72996;40.206;44.498;2024-01-07T03:36:11;89884.13;;;4.53;38.15
83116;BME280;72996;40.206;44.498;2024-01-07T03:38:37;89883.97;;;4.40;38.37
83116;BME280;72996;40.206;44.498;2024-01-07T03:41:03;89883.28;;;4.39;39.01
83116;BME280;72996;40.206;44.498;2024-01-07T03:43:29;89893.53;;;4.32;38.39
83116;BME280;72996;40.206;44.498;2024-01-07T03:45:55;89888.31;;;4.32;38.55
83116;BME280;72996;40.206;44.498;2024-01-07T03:48:21;89890.66;;;4.41;38.98
83116;BME280;72996;40.206;44.498;2024-01-07T03:50:46;89900.56;;;4.53;38.21
83116;BME280;72996;40.206;44.498;2024-01-07T03:53:12;89900.25;;;4.62;38.74
83116;BME280;72996;40.206;44.498;2024-01-07T03:55:38;89899.75;;;4.69;37.92
83116;BME280;72996;40.206;44.498;2024-01-07T03:58:05;89904.72;;;4.73;37.63
83116;BME280;72996;40.206;44.498;2024-01-07T04:00:31;89902.78;;;4.73;38.13
83116;BME280;72996;40.206;44.498;2024-01-07T04:02:57;89906.13;;;4.74;37.53
83116;BME280;72996;40.206;44.498;2024-01-07T04:05:22;89901.72;;;4.58;38.37
83116;BME280;72996;40.206;44.498;2024-01-07T04:07:48;89916.00;;;4.57;38.66
83116;BME280;72996;40.206;44.498;2024-01-07T04:10:16;89903.19;;;4.53;38.16
83116;BME280;72996;40.206;44.498;2024-01-07T04:12:41;89906.22;;;4.63;38.68
83116;BME280;72996;40.206;44.498;2024-01-07T04:15:07;89904.78;;;4.62;38.12
83116;BME280;72996;40.206;44.498;2024-01-07T04:17:33;89897.69;;;4.57;37.71
83116;BME280;72996;40.206;44.498;2024-01-07T04:19:59;89895.28;;;4.59;37.83
83116;BME280;72996;40.206;44.498;2024-01-07T04:22:24;89900.44;;;4.70;38.23
83116;BME280;72996;40.206;44.498;2024-01-07T04:24:50;89904.94;;;4.75;37.65
83116;BME280;72996;40.206;44.498;2024-01-07T04:27:16;89902.31;;;4.75;38.63
83116;BME280;72996;40.206;44.498;2024-01-07T04:29:41;89893.25;;;4.76;37.53
83116;BME280;72996;40.206;44.498;2024-01-07T04:32:07;89896.56;;;4.82;38.54
83116;BME280;72996;40.206;44.498;2024-01-07T04:34:32;89903.88;;;4.89;38.45
83116;BME280;72996;40.206;44.498;2024-01-07T04:36:58;89908.22;;;4.81;37.48
83116;BME280;72996;40.206;44.498;2024-01-07T04:39:23;89910.91;;;4.70;37.44
83116;BME280;72996;40.206;44.498;2024-01-07T04:41:49;89916.41;;;4.66;37.65
83116;BME280;72996;40.206;44.498;2024-01-07T04:44:15;89911.72;;;4.54;37.85
83116;BME280;72996;40.206;44.498;2024-01-07T04:46:40;89911.97;;;4.56;38.76
83116;BME280;72996;40.206;44.498;2024-01-07T04:49:06;89906.72;;;4.56;38.32
83116;BME280;72996;40.206;44.498;2024-01-07T04:51:32;89907.16;;;4.60;38.21
83116;BME280;72996;40.206;44.498;2024-01-07T04:53:58;89913.53;;;4.70;37.69
83116;BME280;72996;40.206;44.498;2024-01-07T04:56:24;89914.31;;;4.94;37.58
83116;BME280;72996;40.206;44.498;2024-01-07T04:58:49;89920.94;;;5.84;37.32
83116;BME280;72996;40.206;44.498;2024-01-07T05:01:15;89918.69;;;6.86;37.00
83116;BME280;72996;40.206;44.498;2024-01-07T05:03:41;89915.00;;;8.09;35.85
83116;BME280;72996;40.206;44.498;2024-01-07T05:06:10;89919.94;;;9.19;33.59
83116;BME280;72996;40.206;44.498;2024-01-07T05:08:36;89919.59;;;9.84;34.52
83116;BME280;72996;40.206;44.498;2024-01-07T05:11:03;89921.69;;;10.34;33.40
83116;BME280;72996;40.206;44.498;2024-01-07T05:13:30;89907.13;;;10.91;32.51
83116;BME280;72996;40.206;44.498;2024-01-07T05:15:56;89919.25;;;11.44;31.11
83116;BME280;72996;40.206;44.498;2024-01-07T05:18:23;89924.56;;;11.82;30.12
83116;BME280;72996;40.206;44.498;2024-01-07T05:20:49;89927.38;;;12.29;30.84
83116;BME280;72996;40.206;44.498;2024-01-07T05:23:15;89922.28;;;12.78;29.65
83116;BME280;72996;40.206;44.498;2024-01-07T05:25:44;89914.63;;;12.27;28.64
83116;BME280;72996;40.206;44.498;2024-01-07T05:28:11;89915.31;;;10.65;29.68
83116;BME280;72996;40.206;44.498;2024-01-07T05:30:37;89921.19;;;9.59;31.38
83116;BME280;72996;40.206;44.498;2024-01-07T05:33:03;89926.56;;;8.79;31.21
83116;BME280;72996;40.206;44.498;2024-01-07T05:35:29;89935.78;;;8.26;32.04
83116;BME280;72996;40.206;44.498;2024-01-07T05:37:54;89938.78;;;7.91;32.93
83116;BME280;72996;40.206;44.498;2024-01-07T05:40:21;89941.38;;;7.65;33.56
83116;BME280;72996;40.206;44.498;2024-01-07T05:42:47;89939.94;;;7.38;33.97
83116;BME280;72996;40.206;44.498;2024-01-07T05:45:12;89936.94;;;7.28;34.08
83116;BME280;72996;40.206;44.498;2024-01-07T05:47:38;89944.22;;;7.22;33.96
83116;BME280;72996;40.206;44.498;2024-01-07T05:50:05;89945.50;;;7.16;33.86
83116;BME280;72996;40.206;44.498;2024-01-07T05:52:30;89948.59;;;7.01;34.70
83116;BME280;72996;40.206;44.498;2024-01-07T05:54:56;89947.25;;;6.95;34.44
83116;BME280;72996;40.206;44.498;2024-01-07T05:57:22;89951.50;;;6.98;34.38
83116;BME280;72996;40.206;44.498;2024-01-07T05:59:47;89946.38;;;7.05;34.63
83116;BME280;72996;40.206;44.498;2024-01-07T06:02:15;89952.06;;;7.09;34.50
83116;BME280;72996;40.206;44.498;2024-01-07T06:04:42;89946.63;;;6.89;34.93
83116;BME280;72996;40.206;44.498;2024-01-07T06:07:08;89962.59;;;6.91;34.72
83116;BME280;72996;40.206;44.498;2024-01-07T06:09:34;89955.91;;;6.90;34.88
83116;BME280;72996;40.206;44.498;2024-01-07T06:11:59;89949.03;;;6.87;35.09
83116;BME280;72996;40.206;44.498;2024-01-07T06:14:25;89959.75;;;6.89;34.68
83116;BME280;72996;40.206;44.498;2024-01-07T06:16:51;89959.47;;;6.92;35.10
83116;BME280;72996;40.206;44.498;2024-01-07T06:19:17;89956.47;;;7.01;34.79
83116;BME280;72996;40.206;44.498;2024-01-07T06:21:43;89950.22;;;7.04;34.65
83116;BME280;72996;40.206;44.498;2024-01-07T06:24:09;89953.19;;;7.14;34.90
83116;BME280;72996;40.206;44.498;2024-01-07T06:26:35;89952.31;;;7.24;34.69
83116;BME280;72996;40.206;44.498;2024-01-07T06:29:00;89957.59;;;7.37;34.54
83116;BME280;72996;40.206;44.498;2024-01-07T06:31:26;89958.09;;;7.36;34.44
83116;BME280;72996;40.206;44.498;2024-01-07T06:33:52;89967.41;;;7.37;33.96
83116;BME280;72996;40.206;44.498;2024-01-07T06:36:18;89961.00;;;7.19;34.84
83116;BME280;72996;40.206;44.498;2024-01-07T06:38:44;89969.09;;;7.21;34.50
83116;BME280;72996;40.206;44.498;2024-01-07T06:41:11;89965.78;;;7.34;34.27
83116;BME280;72996;40.206;44.498;2024-01-07T06:43:38;89971.81;;;7.47;34.49
83116;BME280;72996;40.206;44.498;2024-01-07T06:46:04;89948.44;;;7.44;34.80
83116;BME280;72996;40.206;44.498;2024-01-07T06:48:30;89944.44;;;7.69;34.90
83116;BME280;72996;40.206;44.498;2024-01-07T06:50:56;89932.00;;;8.94;35.05
83116;BME280;72996;40.206;44.498;2024-01-07T06:53:22;89945.28;;;10.04;33.36
83116;BME280;72996;40.206;44.498;2024-01-07T06:55:48;89943.44;;;9.71;33.29
83116;BME280;72996;40.206;44.498;2024-01-07T06:58:14;89949.50;;;9.79;32.60
83116;BME280;72996;40.206;44.498;2024-01-07T07:00:39;89936.88;;;10.41;32.58
83116;BME280;72996;40.206;44.498;2024-01-07T07:03:06;89937.63;;;10.49;31.81
83116;BME280;72996;40.206;44.498;2024-01-07T07:05:31;89907.81;;;10.41;32.23
83116;BME280;72996;40.206;44.498;2024-01-07T07:07:58;89935.69;;;11.00;30.92
83116;BME280;72996;40.206;44.498;2024-01-07T07:10:23;89942.88;;;11.57;29.87
83116;BME280;72996;40.206;44.498;2024-01-07T07:12:49;89931.25;;;12.20;29.79
83116;BME280;72996;40.206;44.498;2024-01-07T07:15:18;89919.53;;;13.40;30.25
83116;BME280;72996;40.206;44.498;2024-01-07T07:17:44;89922.25;;;14.06;28.56
83116;BME280;72996;40.206;44.498;2024-01-07T07:20:10;89921.72;;;14.49;28.21
83116;BME280;72996;40.206;44.498;2024-01-07T07:22:36;89920.91;;;15.07;27.51
83116;BME280;72996;40.206;44.498;2024-01-07T07:25:02;89906.72;;;14.61;26.97
83116;BME280;72996;40.206;44.498;2024-01-07T07:27:28;89912.25;;;14.89;27.49
83116;BME280;72996;40.206;44.498;2024-01-07T07:29:53;89900.75;;;14.70;26.15
83116;BME280;72996;40.206;44.498;2024-01-07T07:32:19;89907.56;;;13.56;25.56
83116;BME280;72996;40.206;44.498;2024-01-07T07:34:46;89914.00;;;13.21;27.01
83116;BME280;72996;40.206;44.498;2024-01-07T07:37:13;89917.03;;;13.10;26.94
83116;BME280;72996;40.206;44.498;2024-01-07T07:39:38;89916.44;;;13.26;28.63
83116;BME280;72996;40.206;44.498;2024-01-07T07:42:04;89907.25;;;14.18;27.69
83116;BME280;72996;40.206;44.498;2024-01-07T07:44:30;89906.22;;;14.89;27.61
83116;BME280;72996;40.206;44.498;2024-01-07T07:46:55;89901.75;;;15.35;26.16
83116;BME280;72996;40.206;44.498;2024-01-07T07:49:21;89897.88;;;15.36;26.59
83116;BME280;72996;40.206;44.498;2024-01-07T07:51:47;89888.91;;;15.41;25.93
83116;BME280;72996;40.206;44.498;2024-01-07T07:54:12;89886.28;;;15.77;26.14
83116;BME280;72996;40.206;44.498;2024-01-07T07:56:38;89888.91;;;15.41;25.52
83116;BME280;72996;40.206;44.498;2024-01-07T07:59:03;89887.34;;;15.38;25.89
83116;BME280;72996;40.206;44.498;2024-01-07T08:01:29;89884.41;;;14.73;25.28
83116;BME280;72996;40.206;44.498;2024-01-07T08:03:55;89858.47;;;13.40;26.70
83116;BME280;72996;40.206;44.498;2024-01-07T08:06:21;89856.31;;;13.14;27.75
83116;BME280;72996;40.206;44.498;2024-01-07T08:08:47;89872.50;;;13.33;27.09
83116;BME280;72996;40.206;44.498;2024-01-07T08:11:12;89879.44;;;12.89;27.20
83116;BME280;72996;40.206;44.498;2024-01-07T08:13:38;89880.34;;;12.37;27.55
83116;BME280;72996;40.206;44.498;2024-01-07T08:16:05;89874.69;;;12.33;28.78
83116;BME280;72996;40.206;44.498;2024-01-07T08:18:31;89869.09;;;13.40;27.24
83116;BME280;72996;40.206;44.498;2024-01-07T08:20:57;89870.59;;;13.75;27.29
83116;BME280;72996;40.206;44.498;2024-01-07T08:23:24;89857.22;;;13.41;26.15
83116;BME280;72996;40.206;44.498;2024-01-07T08:25:50;89864.78;;;13.20;27.15
83116;BME280;72996;40.206;44.498;2024-01-07T08:28:17;89870.22;;;13.54;27.18
83116;BME280;72996;40.206;44.498;2024-01-07T08:30:44;89868.41;;;14.05;27.18
83116;BME280;72996;40.206;44.498;2024-01-07T08:33:10;89864.09;;;14.10;26.83
83116;BME280;72996;40.206;44.498;2024-01-07T08:35:36;89857.06;;;14.73;26.49
83116;BME280;72996;40.206;44.498;2024-01-07T08:38:02;89829.91;;;15.18;24.97
83116;BME280;72996;40.206;44.498;2024-01-07T08:40:28;89854.19;;;15.05;25.57
83116;BME280;72996;40.206;44.498;2024-01-07T08:42:54;89844.81;;;14.60;25.55
83116;BME280;72996;40.206;44.498;2024-01-07T08:45:20;89845.53;;;14.61;25.10
83116;BME280;72996;40.206;44.498;2024-01-07T08:47:46;89837.84;;;14.65;26.35
83116;BME280;72996;40.206;44.498;2024-01-07T08:50:12;89841.63;;;15.15;25.20
83116;BME280;72996;40.206;44.498;2024-01-07T08:52:38;89847.72;;;15.87;24.78
83116;BME280;72996;40.206;44.498;2024-01-07T08:55:04;89844.59;;;16.46;23.90
83116;BME280;72996;40.206;44.498;2024-01-07T08:57:31;89848.69;;;16.75;22.42
83116;BME280;72996;40.206;44.498;2024-01-07T08:59:57;89831.41;;;17.55;23.87
83116;BME280;72996;40.206;44.498;2024-01-07T09:02:23;89828.91;;;17.47;23.33
83116;BME280;72996;40.206;44.498;2024-01-07T09:04:48;89831.69;;;16.71;22.87
83116;BME280;72996;40.206;44.498;2024-01-07T09:07:14;89828.25;;;16.04;23.47
83116;BME280;72996;40.206;44.498;2024-01-07T09:09:42;89829.66;;;16.05;24.20
83116;BME280;72996;40.206;44.498;2024-01-07T09:12:08;89834.09;;;16.58;23.76
83116;BME280;72996;40.206;44.498;2024-01-07T09:14:33;89830.00;;;16.66;23.72
83116;BME280;72996;40.206;44.498;2024-01-07T09:16:59;89817.78;;;16.53;23.91
83116;BME280;72996;40.206;44.498;2024-01-07T09:19:25;89820.00;;;16.19;22.35
83116;BME280;72996;40.206;44.498;2024-01-07T09:21:50;89817.59;;;16.23;23.97
83116;BME280;72996;40.206;44.498;2024-01-07T09:24:16;89810.47;;;16.44;23.85
83116;BME280;72996;40.206;44.498;2024-01-07T09:26:42;89808.91;;;16.89;24.10
83116;BME280;72996;40.206;44.498;2024-01-07T09:29:07;89784.88;;;17.48;23.60
83116;BME280;72996;40.206;44.498;2024-01-07T09:31:33;89792.94;;;17.69;23.09
83116;BME280;72996;40.206;44.498;2024-01-07T09:33:59;89793.81;;;17.62;22.98
83116;BME280;72996;40.206;44.498;2024-01-07T09:36:24;89775.91;;;17.44;22.73
83116;BME280;72996;40.206;44.498;2024-01-07T09:38:50;89775.00;;;18.02;23.44
83116;BME280;72996;40.206;44.498;2024-01-07T09:41:15;89777.31;;;18.38;22.71
83116;BME280;72996;40.206;44.498;2024-01-07T09:43:41;89769.34;;;17.87;22.75
83116;BME280;72996;40.206;44.498;2024-01-07T09:46:07;89765.88;;;17.44;21.70
83116;BME280;72996;40.206;44.498;2024-01-07T09:48:32;89766.63;;;16.00;22.99
83116;BME280;72996;40.206;44.498;2024-01-07T09:51:00;89770.47;;;15.51;24.22
83116;BME280;72996;40.206;44.498;2024-01-07T09:53:30;89767.03;;;15.87;23.44
83116;BME280;72996;40.206;44.498;2024-01-07T09:56:18;89715.53;;;15.20;23.03
83116;BME280;72996;40.206;44.498;2024-01-07T09:58:45;89751.91;;;14.72;23.86
83116;BME280;72996;40.206;44.498;2024-01-07T10:01:16;89751.22;;;14.28;24.81
83116;BME280;72996;40.206;44.498;2024-01-07T10:03:42;89754.50;;;14.02;24.21
83116;BME280;72996;40.206;44.498;2024-01-07T10:06:08;89756.47;;;14.01;25.17
83116;BME280;72996;40.206;44.498;2024-01-07T10:08:34;89750.75;;;14.05;24.54
83116;BME280;72996;40.206;44.498;2024-01-07T10:10:59;89734.31;;;13.82;24.52
83116;BME280;72996;40.206;44.498;2024-01-07T10:13:27;89739.50;;;13.63;25.41
83116;BME280;72996;40.206;44.498;2024-01-07T10:15:52;89740.91;;;13.98;25.56
83116;BME280;72996;40.206;44.498;2024-01-07T10:18:18;89730.28;;;14.85;24.47
83116;BME280;72996;40.206;44.498;2024-01-07T10:20:44;89741.97;;;15.35;24.48
83116;BME280;72996;40.206;44.498;2024-01-07T10:23:10;89742.75;;;15.28;24.37
83116;BME280;72996;40.206;44.498;2024-01-07T10:25:36;89733.94;;;15.25;24.49
83116;BME280;72996;40.206;44.498;2024-01-07T10:28:03;89743.97;;;15.17;24.30
83116;BME280;72996;40.206;44.498;2024-01-07T10:30:29;89730.75;;;14.74;24.07
83116;BME280;72996;40.206;44.498;2024-01-07T10:32:58;89738.25;;;14.58;23.82
83116;BME280;72996;40.206;44.498;2024-01-07T10:35:29;89718.22;;;13.97;23.55
83116;BME280;72996;40.206;44.498;2024-01-07T10:37:59;89738.56;;;13.68;24.70
83116;BME280;72996;40.206;44.498;2024-01-07T10:40:27;89721.03;;;13.65;25.25
83116;BME280;72996;40.206;44.498;2024-01-07T10:42:54;89730.88;;;13.72;25.57
83116;BME280;72996;40.206;44.498;2024-01-07T10:45:20;89725.44;;;13.70;25.26
83116;BME280;72996;40.206;44.498;2024-01-07T10:47:49;89728.53;;;13.59;25.02
83116;BME280;72996;40.206;44.498;2024-01-07T10:50:18;89714.88;;;13.45;25.35
83116;BME280;72996;40.206;44.498;2024-01-07T10:52:49;89722.91;;;13.38;25.58
83116;BME280;72996;40.206;44.498;2024-01-07T10:55:18;89720.56;;;13.42;26.08
83116;BME280;72996;40.206;44.498;2024-01-07T10:57:46;89723.06;;;13.40;25.85
83116;BME280;72996;40.206;44.498;2024-01-07T11:00:16;89734.72;;;13.44;25.37
83116;BME280;72996;40.206;44.498;2024-01-07T11:03:13;89736.25;;;13.47;25.10
83116;BME280;72996;40.206;44.498;2024-01-07T11:05:50;89731.81;;;13.50;24.75
83116;BME280;72996;40.206;44.498;2024-01-07T11:08:41;89730.47;;;13.24;25.15
83116;BME280;72996;40.206;44.498;2024-01-07T11:14:43;89739.50;;;12.97;25.98
83116;BME280;72996;40.206;44.498;2024-01-07T11:17:11;89742.25;;;12.82;26.24
83116;BME280;72996;40.206;44.498;2024-01-07T11:19:49;89741.47;;;12.89;26.28
83116;BME280;72996;40.206;44.498;2024-01-07T11:22:26;89744.91;;;13.06;25.96
83116;BME280;72996;40.206;44.498;2024-01-07T11:24:56;89738.34;;;13.32;26.55
83116;BME280;72996;40.206;44.498;2024-01-07T11:27:23;89741.94;;;13.27;25.85
83116;BME280;72996;40.206;44.498;2024-01-07T11:30:05;89733.16;;;13.17;26.72
83116;BME280;72996;40.206;44.498;2024-01-07T11:32:33;89732.56;;;13.01;25.76
83116;BME280;72996;40.206;44.498;2024-01-07T11:35:01;89717.94;;;12.93;26.25
83116;BME280;72996;40.206;44.498;2024-01-07T11:37:27;89733.63;;;13.06;25.99
83116;BME280;72996;40.206;44.498;2024-01-07T11:39:57;89728.50;;;12.76;25.79
83116;BME280;72996;40.206;44.498;2024-01-07T11:42:23;89720.13;;;12.55;26.46
83116;BME280;72996;40.206;44.498;2024-01-07T11:44:55;89710.59;;;12.52;26.41
83116;BME280;72996;40.206;44.498;2024-01-07T11:47:22;89721.13;;;12.67;26.49
83116;BME280;72996;40.206;44.498;2024-01-07T11:49:48;89715.34;;;12.29;26.47
83116;BME280;72996;40.206;44.498;2024-01-07T11:52:17;89702.72;;;12.05;26.95
83116;BME280;72996;40.206;44.498;2024-01-07T11:54:44;89701.13;;;12.02;27.30
83116;BME280;72996;40.206;44.498;2024-01-07T11:57:10;89699.22;;;11.95;26.83
83116;BME280;72996;40.206;44.498;2024-01-07T11:59:36;89705.56;;;11.99;27.14
83116;BME280;72996;40.206;44.498;2024-01-07T12:02:03;89687.66;;;11.75;27.35
83116;BME280;72996;40.206;44.498;2024-01-07T12:04:34;89711.69;;;11.70;27.29
83116;BME280;72996;40.206;44.498;2024-01-07T12:07:00;89703.28;;;11.34;28.06
83116;BME280;72996;40.206;44.498;2024-01-07T12:09:26;89716.34;;;11.17;28.69
83116;BME280;72996;40.206;44.498;2024-01-07T12:11:52;89716.88;;;11.23;28.32
83116;BME280;72996;40.206;44.498;2024-01-07T12:14:18;89707.19;;;11.18;28.81
83116;BME280;72996;40.206;44.498;2024-01-07T12:16:45;89710.34;;;11.16;28.61
83116;BME280;72996;40.206;44.498;2024-01-07T12:19:11;89711.41;;;11.13;28.57
83116;BME280;72996;40.206;44.498;2024-01-07T12:21:37;89708.94;;;11.08;28.97
83116;BME280;72996;40.206;44.498;2024-01-07T12:24:04;89711.44;;;11.06;28.42
83116;BME280;72996;40.206;44.498;2024-01-07T12:26:30;89712.47;;;11.18;28.87
83116;BME280;72996;40.206;44.498;2024-01-07T12:28:59;89729.22;;;11.28;28.94
83116;BME280;72996;40.206;44.498;2024-01-07T12:31:32;89722.31;;;11.25;28.98
83116;BME280;72996;40.206;44.498;2024-01-07T12:33:59;89729.38;;;11.30;29.03
83116;BME280;72996;40.206;44.498;2024-01-07T12:36:25;89724.78;;;11.38;28.98
83116;BME280;72996;40.206;44.498;2024-01-07T12:38:52;89717.72;;;11.48;28.79
83116;BME280;72996;40.206;44.498;2024-01-07T12:41:20;89705.94;;;11.96;29.01
83116;BME280;72996;40.206;44.498;2024-01-07T12:43:46;89693.41;;;12.28;28.08
83116;BME280;72996;40.206;44.498;2024-01-07T12:46:11;89685.84;;;12.25;27.72
83116;BME280;72996;40.206;44.498;2024-01-07T12:48:37;89675.81;;;12.16;28.05
83116;BME280;72996;40.206;44.498;2024-01-07T12:51:03;89676.81;;;12.28;27.70
83116;BME280;72996;40.206;44.498;2024-01-07T12:53:28;89687.66;;;12.47;28.05
83116;BME280;72996;40.206;44.498;2024-01-07T12:55:54;89685.09;;;12.56;28.06